Time;durP1;ratioP1;P1;durP2;ratioP2;P2;SDS_P1;SDS_P2;PMS_P1;PMS_P2;Temp;Humidity;BMP_temperature;BMP_pressure;BME280_temperature;BME280_humidity;BME280_pressure;Samples;Min_cycle;Max_cycle;Signal;HPM_P1;HPM_P2
2023/12/24 00:01:11;;;;;;;5.88;4.07;;;;;;;8.17;85.18;98979.34;5140878;27;20039;-65
2023/12/24 00:03:38;;;;;;;5.70;3.88;;;;;;;8.26;85.98;98996.81;5140918;27;20035;-65
2023/12/24 00:06:04;;;;;;;6.97;3.80;;;;;;;8.32;86.20;99004.91;5140798;27;20050;-64
2023/12/24 00:08:29;;;;;;;5.15;3.65;;;;;;;8.42;86.78;99014.50;5140030;27;20035;-64
2023/12/24 00:10:56;;;;;;;7.13;3.58;;;;;;;8.49;86.85;99031.31;5140365;27;20043;-65
2023/12/24 00:13:22;;;;;;;5.90;3.97;;;;;;;8.55;88.97;99015.66;5140918;27;20100;-65
2023/12/24 00:15:47;;;;;;;11.13;5.25;;;;;;;8.64;91.63;99004.09;5140130;27;20390;-66
2023/12/24 00:18:13;;;;;;;8.18;5.43;;;;;;;8.59;94.49;99031.97;5140088;27;20031;-66
2023/12/24 00:20:38;;;;;;;8.20;5.80;;;;;;;8.61;94.38;99030.00;5140547;27;20031;-65
2023/12/24 00:23:08;;;;;;;11.82;6.00;;;;;;;8.61;93.37;99035.28;5140726;27;20135;-64
2023/12/24 00:25:35;;;;;;;9.32;5.85;;;;;;;8.63;92.94;99035.94;5140738;27;20051;-66
2023/12/24 00:28:01;;;;;;;9.15;5.68;;;;;;;8.69;92.39;99035.25;5140131;27;20042;-66
2023/12/24 00:30:27;;;;;;;8.18;5.50;;;;;;;8.68;92.00;99032.78;5140117;27;20356;-66
2023/12/24 00:32:56;;;;;;;9.93;4.88;;;;;;;8.77;91.23;99047.63;5140015;27;20043;-65
2023/12/24 00:35:23;;;;;;;9.18;5.88;;;;;;;8.84;90.46;99043.31;5139601;27;20030;-65
2023/12/24 00:37:49;;;;;;;5.45;3.80;;;;;;;8.85;89.75;99040.50;5139463;27;20045;-66
2023/12/24 00:40:15;;;;;;;4.35;3.95;;;;;;;8.88;89.61;99026.97;5139851;27;20026;-64
2023/12/24 00:42:41;;;;;;;8.85;4.22;;;;;;;8.95;89.19;99046.44;5139115;27;20267;-64
2023/12/24 00:45:08;;;;;;;12.50;4.72;;;;;;;8.99;88.27;99041.63;5139928;27;20019;-64
2023/12/24 00:47:33;;;;;;;5.57;4.20;;;;;;;9.05;88.07;99038.31;5149955;27;20039;-64
2023/12/24 00:49:59;;;;;;;6.43;3.35;;;;;;;9.12;88.36;99049.84;5139072;27;20035;-65
2023/12/24 00:52:25;;;;;;;5.35;3.17;;;;;;;9.23;87.34;99049.50;5143056;27;20049;-66
2023/12/24 00:54:50;;;;;;;5.57;3.25;;;;;;;9.29;87.65;99043.53;5148529;27;20031;-64
2023/12/24 00:57:15;;;;;;;7.00;2.85;;;;;;;9.33;87.17;99049.28;5139742;27;20039;-66
2023/12/24 00:59:41;;;;;;;6.03;3.35;;;;;;;9.40;87.30;99054.75;5139754;27;20031;-66
2023/12/24 01:02:06;;;;;;;6.57;3.03;;;;;;;9.48;87.57;99052.06;5139399;27;20103;-66
2023/12/24 01:04:32;;;;;;;4.53;2.80;;;;;;;9.53;87.66;99052.38;5139070;27;20236;-64
2023/12/24 01:06:57;;;;;;;5.45;2.58;;;;;;;9.57;87.84;99057.16;5138663;27;20062;-64
2023/12/24 01:09:23;;;;;;;2.88;2.65;;;;;;;9.59;87.90;99067.53;5138732;27;20031;-64
2023/12/24 01:11:49;;;;;;;4.60;2.42;;;;;;;9.57;88.81;99058.97;5139523;27;20027;-66
2023/12/24 01:14:14;;;;;;;5.05;2.35;;;;;;;9.60;88.67;99072.66;5139715;27;20035;-65
2023/12/24 01:16:40;;;;;;;7.68;2.67;;;;;;;9.66;88.41;99062.38;5150206;27;20243;-66
2023/12/24 01:19:06;;;;;;;3.85;2.70;;;;;;;9.67;88.88;99054.28;5139889;27;20035;-66
2023/12/24 01:21:31;;;;;;;5.07;2.58;;;;;;;9.72;88.69;99065.16;5140123;27;20054;-66
2023/12/24 01:23:57;;;;;;;3.42;2.60;;;;;;;9.73;88.20;99055.41;5139192;27;20043;-64
2023/12/24 01:26:22;;;;;;;4.93;2.85;;;;;;;9.73;88.18;99053.59;5139872;27;20038;-65
2023/12/24 01:28:47;;;;;;;4.72;2.30;;;;;;;9.78;87.96;99061.81;5140368;27;20216;-64
2023/12/24 01:31:13;;;;;;;5.40;3.53;;;;;;;9.80;87.28;99057.19;5146955;27;20466;-65
2023/12/24 01:33:39;;;;;;;3.13;2.60;;;;;;;9.83;87.80;99075.34;5139328;27;20102;-64
2023/12/24 01:36:04;;;;;;;5.03;3.10;;;;;;;9.81;87.15;99071.22;5138840;27;20031;-64
2023/12/24 01:38:30;;;;;;;7.22;2.88;;;;;;;9.79;87.36;99071.41;5137359;27;20042;-64
2023/12/24 01:40:55;;;;;;;3.05;2.38;;;;;;;9.83;86.68;99074.53;5138503;27;20405;-64
2023/12/24 01:43:21;;;;;;;4.85;2.60;;;;;;;9.82;86.57;99071.06;5138160;27;20368;-66
2023/12/24 01:45:46;;;;;;;4.28;2.33;;;;;;;9.90;86.19;99081.59;5137518;27;20206;-64
2023/12/24 01:48:17;;;;;;;6.25;2.65;;;;;;;9.88;85.21;99070.38;5137952;27;20039;-66
2023/12/24 01:50:46;;;;;;;3.80;2.22;;;;;;;10.00;85.10;99086.66;5138089;27;20345;-66
2023/12/24 01:53:15;;;;;;;3.67;2.20;;;;;;;10.01;85.11;99088.31;5138525;27;20077;-66
2023/12/24 01:55:41;;;;;;;4.22;2.47;;;;;;;10.02;84.86;99094.44;5137281;27;20034;-66
2023/12/24 01:58:07;;;;;;;3.00;2.15;;;;;;;10.04;84.83;99103.00;5138235;27;20030;-67
2023/12/24 02:00:32;;;;;;;2.65;1.80;;;;;;;10.08;84.77;99099.84;5139177;27;20034;-66
2023/12/24 02:03:00;;;;;;;3.58;2.00;;;;;;;10.11;84.67;99098.66;5138858;27;20348;-67
2023/12/24 02:05:27;;;;;;;3.85;2.13;;;;;;;10.10;83.94;99100.50;5138125;27;20058;-65
2023/12/24 02:07:55;;;;;;;3.25;1.90;;;;;;;10.23;83.12;99094.66;5139457;27;20049;-65
2023/12/24 02:10:20;;;;;;;1.90;1.60;;;;;;;10.29;82.11;99085.19;5138240;27;20035;-65
2023/12/24 02:12:46;;;;;;;2.95;1.60;;;;;;;10.35;81.47;99092.41;5138268;27;20035;-66
2023/12/24 02:15:12;;;;;;;3.55;2.03;;;;;;;10.40;81.77;99108.59;5138419;27;20051;-67
2023/12/24 02:17:39;;;;;;;3.63;2.08;;;;;;;10.42;81.64;99101.34;5137847;27;20300;-66
2023/12/24 02:20:05;;;;;;;2.67;2.17;;;;;;;10.28;81.72;99081.72;5138093;27;20708;-65
2023/12/24 02:22:31;;;;;;;4.13;2.20;;;;;;;10.35;81.27;99101.19;5143898;27;20035;-66
2023/12/24 02:24:57;;;;;;;4.40;2.53;;;;;;;10.35;81.19;99101.19;5137930;27;20053;-66
2023/12/24 02:27:44;;;;;;;4.85;1.92;;;;;;;10.42;80.73;99117.22;5138461;27;20031;-66
2023/12/24 02:30:15;;;;;;;4.85;2.72;;;;;;;10.44;80.28;99123.97;5137085;27;20035;-66
2023/12/24 02:32:43;;;;;;;5.60;2.10;;;;;;;10.46;80.09;99137.84;5137193;27;20043;-64
2023/12/24 02:35:10;;;;;;;3.70;2.05;;;;;;;10.44;80.70;99141.69;5137163;27;20102;-67
2023/12/24 02:37:36;;;;;;;3.92;2.55;;;;;;;10.41;80.57;99152.63;5137206;27;20058;-67
2023/12/24 02:40:01;;;;;;;3.78;2.35;;;;;;;10.39;80.07;99154.59;5137591;27;20104;-65
2023/12/24 02:42:27;;;;;;;5.57;3.22;;;;;;;10.37;80.87;99161.88;5137845;27;20151;-65
2023/12/24 02:44:52;;;;;;;5.25;3.28;;;;;;;10.27;81.11;99159.44;5137978;27;20046;-65
2023/12/24 02:47:17;;;;;;;6.05;2.65;;;;;;;10.23;81.49;99163.44;5137097;27;20262;-66
2023/12/24 02:49:43;;;;;;;5.10;2.90;;;;;;;10.16;82.01;99178.34;5137367;27;20099;-65
2023/12/24 02:52:08;;;;;;;3.08;2.05;;;;;;;10.03;82.14;99170.13;5137247;27;20068;-66
2023/12/24 02:54:34;;;;;;;2.83;2.33;;;;;;;10.00;82.58;99168.66;5137450;27;20034;-64
2023/12/24 02:56:59;;;;;;;5.80;2.83;;;;;;;9.96;82.47;99172.63;5137479;27;20236;-64
2023/12/24 02:59:26;;;;;;;3.78;2.58;;;;;;;9.87;82.97;99177.13;5137259;27;20353;-65
2023/12/24 03:01:51;;;;;;;2.80;2.20;;;;;;;9.81;83.01;99179.66;5136561;27;20050;-66
2023/12/24 03:04:17;;;;;;;4.85;2.53;;;;;;;9.84;83.27;99196.00;5136777;27;20038;-66
2023/12/24 03:06:42;;;;;;;7.10;3.38;;;;;;;9.77;83.79;99194.19;5137644;27;20026;-65
2023/12/24 03:09:10;;;;;;;4.88;2.45;;;;;;;9.76;83.54;99196.03;5137321;27;20031;-67
2023/12/24 03:11:35;;;;;;;5.53;2.47;;;;;;;9.76;82.93;99205.78;5138141;27;20054;-66
2023/12/24 03:14:01;;;;;;;6.07;3.70;;;;;;;9.70;82.73;99209.09;5138004;27;20035;-66
2023/12/24 03:16:26;;;;;;;4.68;2.50;;;;;;;9.70;82.59;99201.16;5137818;27;20039;-66
2023/12/24 03:18:52;;;;;;;4.88;2.58;;;;;;;9.74;82.23;99216.50;5137657;27;20047;-66
2023/12/24 03:21:17;;;;;;;3.08;2.17;;;;;;;9.84;81.32;99213.69;5137358;27;20039;-64
2023/12/24 03:23:42;;;;;;;3.97;2.05;;;;;;;9.85;80.56;99216.16;5135448;27;20039;-64
2023/12/24 03:26:19;;;;;;;2.92;2.33;;;;;;;9.93;79.98;99224.06;5133779;27;20046;-67
2023/12/24 03:28:44;;;;;;;4.30;2.03;;;;;;;9.90;79.51;99228.88;5136956;27;20039;-66
2023/12/24 03:31:11;;;;;;;3.55;2.53;;;;;;;9.93;79.85;99232.00;5137279;27;20072;-65
2023/12/24 03:33:36;;;;;;;2.63;1.70;;;;;;;9.96;79.25;99238.75;5136911;27;20043;-66
2023/12/24 03:36:02;;;;;;;5.53;2.50;;;;;;;9.95;79.50;99238.94;5136854;27;20064;-65
2023/12/24 03:38:27;;;;;;;4.80;2.55;;;;;;;9.93;79.81;99241.75;5136675;27;20047;-65
2023/12/24 03:40:53;;;;;;;3.50;2.30;;;;;;;9.93;78.99;99242.56;5136823;27;20035;-64
2023/12/24 03:43:18;;;;;;;3.83;2.40;;;;;;;9.87;79.98;99242.44;5136350;27;20039;-65
2023/12/24 03:45:44;;;;;;;6.03;2.35;;;;;;;9.86;79.64;99252.19;5135715;27;20035;-64
2023/12/24 03:48:11;;;;;;;3.45;1.88;;;;;;;9.77;80.20;99257.66;5136561;27;20253;-65
2023/12/24 03:50:37;;;;;;;2.90;2.33;;;;;;;9.77;79.78;99255.00;5137784;27;20102;-66
2023/12/24 03:53:03;;;;;;;3.10;2.00;;;;;;;9.80;79.42;99247.56;5137804;27;20049;-67
2023/12/24 03:55:28;;;;;;;3.08;1.88;;;;;;;9.81;79.49;99243.94;5138039;27;20031;-65
2023/12/24 03:57:53;;;;;;;3.60;1.85;;;;;;;9.81;79.33;99262.44;5137095;27;20067;-65
2023/12/24 04:00:19;;;;;;;2.92;1.92;;;;;;;9.75;78.66;99241.13;5137884;27;20097;-64
2023/12/24 04:02:44;;;;;;;3.88;2.30;;;;;;;9.71;78.36;99253.03;5140183;27;20054;-66
2023/12/24 04:05:10;;;;;;;3.08;1.98;;;;;;;9.65;78.37;99256.34;5140966;27;20034;-64
2023/12/24 04:07:35;;;;;;;2.75;2.10;;;;;;;9.60;77.58;99257.69;5139898;27;20098;-67
2023/12/24 04:10:00;;;;;;;3.28;1.95;;;;;;;9.63;77.40;99260.97;5140933;27;20287;-65
2023/12/24 04:12:26;;;;;;;3.92;1.50;;;;;;;9.67;77.02;99272.88;5140325;27;20049;-66
2023/12/24 04:14:51;;;;;;;3.08;1.40;;;;;;;9.73;76.78;99277.50;5140955;27;20039;-65
2023/12/24 04:17:17;;;;;;;3.42;1.58;;;;;;;9.68;76.56;99272.72;5140528;27;20061;-67
2023/12/24 04:19:42;;;;;;;2.60;1.70;;;;;;;9.69;76.59;99284.94;5139994;27;20047;-65
2023/12/24 04:22:07;;;;;;;3.55;1.45;;;;;;;9.69;76.24;99277.00;5158384;27;20035;-66
2023/12/24 04:24:33;;;;;;;2.92;2.03;;;;;;;9.72;75.83;99279.31;5160031;27;20269;-66
2023/12/24 04:26:58;;;;;;;3.50;1.60;;;;;;;9.69;75.58;99279.66;5138678;27;20037;-66
2023/12/24 04:29:24;;;;;;;1.77;1.45;;;;;;;9.69;75.39;99290.22;5140456;27;20162;-66
2023/12/24 04:31:49;;;;;;;2.92;1.50;;;;;;;9.71;75.38;99290.06;5138820;27;20528;-64
2023/12/24 04:34:14;;;;;;;2.47;1.40;;;;;;;9.75;75.09;99297.47;5139632;27;20035;-67
2023/12/24 04:36:40;;;;;;;2.40;1.10;;;;;;;9.65;74.74;99304.75;5139272;27;20027;-66
2023/12/24 04:39:05;;;;;;;1.63;1.10;;;;;;;9.69;74.43;99294.69;5139496;27;20321;-66
2023/12/24 04:41:31;;;;;;;1.30;0.90;;;;;;;9.73;74.05;99303.94;5139031;27;20325;-65
2023/12/24 04:43:56;;;;;;;1.20;0.82;;;;;;;9.77;73.98;99307.88;5139357;27;20053;-65
2023/12/24 04:46:21;;;;;;;1.02;0.80;;;;;;;9.70;72.96;99309.56;5139581;27;20023;-66
2023/12/24 04:48:47;;;;;;;4.55;1.73;;;;;;;9.82;72.44;99311.69;5138948;27;20038;-66
2023/12/24 04:51:12;;;;;;;0.70;0.70;;;;;;;9.83;72.36;99309.88;5137681;27;20035;-67
2023/12/24 04:53:38;;;;;;;1.15;0.93;;;;;;;9.90;72.05;99324.88;5139549;27;20066;-67
2023/12/24 04:56:04;;;;;;;1.27;0.88;;;;;;;9.95;71.53;99334.13;5138618;27;20030;-65
2023/12/24 04:58:29;;;;;;;2.47;1.08;;;;;;;9.98;71.24;99342.56;5138844;27;20074;-66
2023/12/24 05:00:56;;;;;;;2.00;1.10;;;;;;;10.01;71.10;99341.41;5137232;27;20031;-65
2023/12/24 05:03:23;;;;;;;1.42;0.95;;;;;;;9.98;71.10;99321.41;5138204;27;20218;-66
2023/12/24 05:05:48;;;;;;;2.45;1.30;;;;;;;10.10;70.52;99343.88;5138012;27;20812;-66
2023/12/24 05:08:14;;;;;;;1.75;0.93;;;;;;;10.09;70.07;99351.97;5137443;27;20035;-66
2023/12/24 05:10:40;;;;;;;1.10;1.00;;;;;;;10.11;70.14;99350.81;5139410;27;20038;-66
2023/12/24 05:13:06;;;;;;;1.42;1.00;;;;;;;10.14;69.43;99358.41;5138212;27;20039;-66
2023/12/24 05:15:31;;;;;;;1.85;1.10;;;;;;;10.10;69.95;99357.09;5139163;27;20099;-66
2023/12/24 05:17:56;;;;;;;1.23;0.80;;;;;;;10.15;70.31;99370.63;5136924;27;20064;-65
2023/12/24 05:20:22;;;;;;;1.00;0.90;;;;;;;10.19;69.71;99379.06;5139496;27;20031;-67
2023/12/24 05:22:47;;;;;;;1.10;0.80;;;;;;;10.20;69.91;99384.22;5137421;27;20245;-64
2023/12/24 05:25:13;;;;;;;1.05;0.80;;;;;;;10.20;69.88;99383.41;5138847;27;20031;-64
2023/12/24 05:27:39;;;;;;;0.88;0.68;;;;;;;10.16;70.61;99389.97;5137064;27;20215;-66
2023/12/24 05:30:06;;;;;;;1.27;0.68;;;;;;;10.15;70.30;99402.38;5139045;27;20041;-65
2023/12/24 05:32:31;;;;;;;1.63;0.73;;;;;;;10.15;70.37;99406.84;5135952;27;20062;-66
2023/12/24 05:34:57;;;;;;;1.20;0.93;;;;;;;10.18;69.54;99407.34;5137802;27;20218;-66
2023/12/24 05:37:22;;;;;;;0.80;0.70;;;;;;;10.00;70.54;99406.69;5136356;27;20544;-66
2023/12/24 05:39:48;;;;;;;1.02;0.90;;;;;;;10.11;70.58;99421.41;5137057;27;20553;-64
2023/12/24 05:42:13;;;;;;;1.40;0.98;;;;;;;9.95;70.97;99424.88;5136058;27;20038;-66
2023/12/24 05:44:39;;;;;;;1.00;0.90;;;;;;;10.10;70.43;99436.47;5137532;27;20038;-64
2023/12/24 05:47:04;;;;;;;3.80;2.70;;;;;;;10.13;70.70;99430.84;5138048;27;20031;-66
2023/12/24 05:49:30;;;;;;;2.20;1.90;;;;;;;10.13;70.37;99444.06;5136326;27;20225;-67
2023/12/24 05:51:55;;;;;;;1.38;1.00;;;;;;;10.15;70.40;99447.38;5137254;27;20430;-65
2023/12/24 05:54:20;;;;;;;3.17;2.17;;;;;;;10.21;70.60;99453.84;5135045;27;20039;-64
2023/12/24 05:56:46;;;;;;;1.77;1.50;;;;;;;10.26;70.76;99443.59;5137927;27;20031;-67
2023/12/24 05:59:11;;;;;;;2.90;1.45;;;;;;;10.30;69.88;99462.59;5136294;27;20341;-66
2023/12/24 06:01:37;;;;;;;2.25;1.50;;;;;;;10.34;69.71;99477.16;5138275;27;20135;-66
2023/12/24 06:04:03;;;;;;;3.20;1.90;;;;;;;10.35;69.49;99476.97;5135900;27;20797;-66
2023/12/24 06:06:28;;;;;;;1.40;1.02;;;;;;;10.32;70.20;99479.13;5136541;27;20027;-65
2023/12/24 06:08:54;;;;;;;2.97;1.63;;;;;;;10.34;69.50;99483.28;5135073;27;20360;-67
2023/12/24 06:11:19;;;;;;;3.13;2.30;;;;;;;10.34;69.80;99480.63;5138554;27;20043;-65
2023/12/24 06:13:45;;;;;;;4.90;2.15;;;;;;;10.42;69.34;99479.81;5137653;27;20240;-67
2023/12/24 06:16:12;;;;;;;6.45;3.55;;;;;;;10.45;69.41;99490.91;5137287;27;20094;-66
2023/12/24 06:18:39;;;;;;;3.65;2.75;;;;;;;10.48;69.21;99490.56;5136281;27;20031;-65
2023/12/24 06:21:04;;;;;;;2.50;2.20;;;;;;;10.44;69.43;99491.91;5137271;27;20296;-64
2023/12/24 06:23:31;;;;;;;4.03;2.40;;;;;;;10.46;69.44;99489.06;5137104;27;20031;-66
2023/12/24 06:25:57;;;;;;;3.08;2.35;;;;;;;10.41;69.26;99489.56;5134911;27;20019;-66
2023/12/24 06:28:22;;;;;;;2.83;2.17;;;;;;;10.51;69.74;99500.81;5135641;27;20035;-66
2023/12/24 06:30:48;;;;;;;3.75;1.88;;;;;;;10.51;70.51;99510.59;5138265;27;20037;-67
2023/12/24 06:33:13;;;;;;;3.17;2.10;;;;;;;10.48;70.94;99497.69;5134770;27;20336;-67
2023/12/24 06:35:39;;;;;;;6.18;3.00;;;;;;;10.47;70.66;99499.50;5137111;27;20212;-67
2023/12/24 06:38:04;;;;;;;3.30;2.42;;;;;;;10.52;70.82;99499.00;5135183;27;20031;-65
2023/12/24 06:40:30;;;;;;;4.82;3.33;;;;;;;10.58;70.54;99500.97;5137417;27;20335;-67
2023/12/24 06:42:55;;;;;;;10.27;5.68;;;;;;;10.62;70.96;99506.75;5135650;27;20047;-64
2023/12/24 06:45:20;;;;;;;3.97;2.90;;;;;;;10.67;70.73;99507.91;5135918;27;20031;-65
2023/12/24 06:47:46;;;;;;;4.70;2.35;;;;;;;10.76;70.46;99504.25;5135551;27;20046;-67
2023/12/24 06:50:11;;;;;;;3.97;2.33;;;;;;;10.69;71.19;99503.28;5137743;27;20039;-66
2023/12/24 06:52:37;;;;;;;3.03;2.35;;;;;;;10.85;71.24;99505.06;5135551;27;20132;-66
2023/12/24 06:55:03;;;;;;;2.22;1.50;;;;;;;11.00;70.94;99510.47;5136981;27;20034;-62
2023/12/24 06:57:28;;;;;;;3.95;3.63;;;;;;;11.09;70.40;99512.09;5135097;27;20043;-64
2023/12/24 06:59:53;;;;;;;7.53;6.93;;;;;;;11.16;70.92;99519.19;5134993;27;20039;-62
2023/12/24 07:02:19;;;;;;;4.63;4.10;;;;;;;11.35;70.09;99528.56;5135855;27;20054;-64
2023/12/24 07:04:44;;;;;;;7.75;4.75;;;;;;;11.57;70.37;99531.47;5135065;27;20046;-64
2023/12/24 07:07:10;;;;;;;3.28;2.40;;;;;;;11.73;69.69;99528.75;5136943;27;20069;-64
2023/12/24 07:09:35;;;;;;;3.03;1.88;;;;;;;11.80;69.00;99527.91;5136905;27;20175;-63
2023/12/24 07:12:01;;;;;;;3.05;1.60;;;;;;;11.97;67.80;99535.75;5118781;27;20031;-64
2023/12/24 07:14:26;;;;;;;1.48;1.25;;;;;;;11.96;67.53;99542.88;5137793;27;20039;-64
2023/12/24 07:16:52;;;;;;;2.25;1.77;;;;;;;12.09;66.85;99552.91;5137151;27;20032;-62
2023/12/24 07:19:17;;;;;;;1.60;1.50;;;;;;;12.08;66.52;99556.56;5137576;27;20343;-62
2023/12/24 07:21:42;;;;;;;2.35;1.70;;;;;;;12.09;66.89;99547.59;5135726;27;20039;-62
2023/12/24 07:24:09;;;;;;;6.22;3.00;;;;;;;12.08;66.85;99556.56;5137431;27;20041;-62
2023/12/24 07:26:34;;;;;;;2.25;1.77;;;;;;;12.00;65.75;99551.31;5136547;27;20087;-64
2023/12/24 07:29:00;;;;;;;4.78;3.00;;;;;;;12.02;66.20;99560.75;5137345;27;20031;-64
2023/12/24 07:31:25;;;;;;;3.42;2.08;;;;;;;12.02;66.35;99565.25;5136813;27;20047;-62
2023/12/24 07:33:51;;;;;;;2.45;2.05;;;;;;;12.04;66.04;99574.69;5137263;27;20334;-62
2023/12/24 07:36:17;;;;;;;4.00;2.35;;;;;;;12.08;66.90;99583.13;5138964;27;20035;-62
2023/12/24 07:38:42;;;;;;;3.25;2.40;;;;;;;12.06;67.56;99579.81;5141464;27;20217;-63
2023/12/24 07:41:08;;;;;;;2.55;1.85;;;;;;;12.06;66.65;99574.50;5140351;27;20340;-64
2023/12/24 07:43:33;;;;;;;3.15;2.40;;;;;;;12.07;66.60;99584.13;5140494;27;20038;-62
2023/12/24 07:45:59;;;;;;;4.22;3.28;;;;;;;12.12;66.75;99581.75;5141087;27;20098;-63
2023/12/24 07:48:25;;;;;;;3.45;2.17;;;;;;;12.17;66.12;99586.53;5140435;27;20030;-62
2023/12/24 07:50:50;;;;;;;4.78;2.13;;;;;;;12.19;66.70;99580.06;5141376;27;20114;-62
2023/12/24 07:53:16;;;;;;;5.72;2.53;;;;;;;12.30;65.91;99584.13;5140051;27;20075;-64
2023/12/24 07:55:41;;;;;;;2.95;2.20;;;;;;;12.54;65.27;99578.66;5141832;27;20079;-62
2023/12/24 07:58:07;;;;;;;2.25;1.60;;;;;;;12.77;64.28;99587.41;5138229;27;20039;-67
2023/12/24 08:00:32;;;;;;;1.85;1.15;;;;;;;13.00;62.07;99586.53;5141819;27;20106;-67
2023/12/24 08:02:58;;;;;;;2.65;1.50;;;;;;;13.12;61.23;99587.75;5140001;27;20464;-62
2023/12/24 08:05:23;;;;;;;3.47;1.45;;;;;;;13.26;61.03;99578.16;5141038;27;20035;-67
2023/12/24 08:07:48;;;;;;;2.15;1.08;;;;;;;13.37;60.00;99580.38;5139965;27;20031;-64
2023/12/24 08:10:14;;;;;;;1.38;0.90;;;;;;;13.40;59.36;99583.47;5141064;27;20079;-65
2023/12/24 08:12:39;;;;;;;2.72;0.90;;;;;;;13.45;59.34;99582.94;5139516;27;20039;-64
2023/12/24 08:15:06;;;;;;;1.00;0.90;;;;;;;13.53;58.98;99579.38;5140146;27;20066;-67
2023/12/24 08:17:31;;;;;;;1.45;1.08;;;;;;;13.57;58.65;99581.47;5138365;27;20038;-64
2023/12/24 08:19:57;;;;;;;1.75;1.00;;;;;;;13.65;58.77;99589.34;5140222;27;20035;-66
2023/12/24 08:22:22;;;;;;;1.08;0.77;;;;;;;13.75;58.32;99594.38;5139850;27;20042;-67
2023/12/24 08:24:49;;;;;;;1.85;1.17;;;;;;;13.79;58.18;99592.19;5139553;27;20110;-65
2023/12/24 08:27:14;;;;;;;1.25;0.80;;;;;;;13.77;57.73;99591.53;5140904;27;20023;-66
2023/12/24 08:29:40;;;;;;;1.80;0.77;;;;;;;13.88;58.01;99596.38;5140857;27;20325;-65
2023/12/24 08:32:05;;;;;;;1.33;0.90;;;;;;;13.94;58.09;99583.16;5140654;27;20039;-65
2023/12/24 08:34:32;;;;;;;0.70;0.65;;;;;;;13.97;57.09;99573.97;5139051;27;20035;-66
2023/12/24 08:36:58;;;;;;;0.90;0.50;;;;;;;13.97;56.27;99580.13;5140761;27;20072;-66
2023/12/24 08:39:23;;;;;;;1.48;1.23;;;;;;;14.03;56.21;99571.38;5139424;27;20034;-64
2023/12/24 08:41:48;;;;;;;1.85;0.93;;;;;;;14.16;56.96;99561.88;5140497;27;20035;-67
2023/12/24 08:44:14;;;;;;;1.60;0.55;;;;;;;14.21;55.00;99546.97;5138245;27;20409;-67
2023/12/24 08:46:41;;;;;;;1.42;0.50;;;;;;;14.28;54.79;99553.19;5140363;27;20239;-67
2023/12/24 08:49:07;;;;;;;0.95;0.80;;;;;;;14.34;56.04;99555.09;5136828;27;20039;-66
2023/12/24 08:51:33;;;;;;;1.23;0.82;;;;;;;14.46;54.74;99557.28;5139987;27;20047;-65
2023/12/24 08:53:59;;;;;;;4.05;1.60;;;;;;;14.51;54.53;99555.69;5139635;27;20356;-65
2023/12/24 08:56:25;;;;;;;3.60;1.10;;;;;;;14.50;55.55;99556.69;5140229;27;20027;-65
2023/12/24 08:58:50;;;;;;;1.88;1.00;;;;;;;14.59;55.21;99546.75;5141377;27;20071;-67
2023/12/24 09:01:16;;;;;;;3.53;1.20;;;;;;;14.62;53.94;99549.03;5139910;27;20095;-65
2023/12/24 09:03:42;;;;;;;3.03;1.10;;;;;;;14.60;53.57;99551.06;5140173;27;20050;-64
2023/12/24 09:06:07;;;;;;;0.93;0.68;;;;;;;14.56;53.41;99536.47;5139448;27;20295;-67
2023/12/24 09:08:33;;;;;;;1.52;0.90;;;;;;;14.61;53.71;99531.41;5139137;27;20084;-65
2023/12/24 09:10:58;;;;;;;1.92;1.00;;;;;;;14.65;53.13;99516.69;5138716;27;20038;-67
2023/12/24 09:13:24;;;;;;;2.08;0.60;;;;;;;14.68;52.94;99525.09;5139447;27;20038;-67
2023/12/24 09:15:49;;;;;;;1.15;1.05;;;;;;;14.74;53.05;99514.69;5139120;27;20341;-67
2023/12/24 09:18:15;;;;;;;2.92;0.90;;;;;;;14.79;52.10;99509.59;5138606;27;20035;-66
2023/12/24 09:20:40;;;;;;;2.45;1.38;;;;;;;14.86;53.10;99503.28;5139666;27;20023;-65
2023/12/24 09:23:05;;;;;;;1.60;1.08;;;;;;;14.92;51.47;99499.03;5139279;27;20267;-67
2023/12/24 09:25:31;;;;;;;2.85;0.80;;;;;;;14.94;51.80;99500.47;5139180;27;20052;-66
2023/12/24 09:27:57;;;;;;;1.23;0.90;;;;;;;14.94;50.75;99486.31;5139478;27;20256;-67
2023/12/24 09:30:24;;;;;;;2.63;1.23;;;;;;;14.89;51.62;99486.09;5139406;27;20985;-65
2023/12/24 09:32:49;;;;;;;0.95;0.70;;;;;;;14.93;51.53;99501.50;5139470;27;20034;-65
2023/12/24 09:35:15;;;;;;;1.60;0.95;;;;;;;14.97;51.46;99494.75;5140027;27;20266;-67
2023/12/24 09:37:40;;;;;;;4.00;1.23;;;;;;;14.93;51.13;99490.81;5140346;27;20039;-67
2023/12/24 09:40:07;;;;;;;2.53;1.00;;;;;;;14.99;52.32;99484.72;5140060;27;20290;-64
2023/12/24 09:42:35;;;;;;;2.00;0.70;;;;;;;14.98;51.28;99488.41;5139276;27;20222;-67
2023/12/24 09:45:01;;;;;;;2.38;1.05;;;;;;;15.06;52.36;99487.41;5138996;27;20039;-65
2023/12/24 09:47:26;;;;;;;1.38;0.60;;;;;;;15.04;49.87;99484.13;5139026;27;20039;-65
2023/12/24 09:49:52;;;;;;;0.57;0.47;;;;;;;15.05;49.98;99480.44;5138874;27;20042;-65
2023/12/24 09:52:17;;;;;;;3.30;0.47;;;;;;;15.04;48.62;99472.63;5139100;27;20038;-65
2023/12/24 09:54:43;;;;;;;0.68;0.50;;;;;;;15.12;49.22;99472.47;5139015;27;20031;-67
2023/12/24 09:57:08;;;;;;;1.45;0.40;;;;;;;15.13;49.44;99466.09;5139605;27;20039;-67
2023/12/24 09:59:34;;;;;;;1.45;0.30;;;;;;;15.21;48.89;99474.75;5139008;27;20368;-66
2023/12/24 10:01:59;;;;;;;1.00;0.55;;;;;;;15.26;48.12;99471.50;5139073;27;20058;-67
2023/12/24 10:04:25;;;;;;;0.98;0.38;;;;;;;15.28;49.06;99474.78;5139979;27;20031;-67
2023/12/24 10:06:54;;;;;;;2.88;0.50;;;;;;;15.24;48.15;99462.88;5139523;27;20337;-68
2023/12/24 10:09:21;;;;;;;0.40;0.35;;;;;;;15.28;47.82;99470.28;5139851;27;20478;-66
2023/12/24 10:12:08;;;;;;;2.92;0.68;;;;;;;15.22;48.56;99475.59;5140243;27;20041;-67
2023/12/24 10:14:35;;;;;;;0.90;0.50;;;;;;;15.23;48.93;99474.56;5140012;27;20046;-65
2023/12/24 10:17:01;;;;;;;1.00;0.50;;;;;;;15.22;48.72;99478.25;5138956;27;20176;-66
2023/12/24 10:19:28;;;;;;;2.53;0.45;;;;;;;15.22;47.94;99475.59;5139406;27;20027;-66
2023/12/24 10:22:07;;;;;;;1.08;0.63;;;;;;;15.26;48.72;99466.16;5138855;27;20310;-67
2023/12/24 10:24:40;;;;;;;0.80;0.35;;;;;;;15.27;49.08;99478.47;5139005;27;20043;-68
2023/12/24 10:27:10;;;;;;;0.77;0.40;;;;;;;15.27;48.06;99479.31;5132662;27;20088;-67
2023/12/24 10:29:38;;;;;;;0.70;0.30;;;;;;;15.14;48.13;99470.41;5138047;27;20363;-65
2023/12/24 10:32:04;;;;;;;1.00;0.30;;;;;;;15.10;48.80;99472.66;5134752;27;20103;-66
2023/12/24 10:34:30;;;;;;;0.32;0.32;;;;;;;15.12;48.86;99470.63;5138762;27;20026;-65
2023/12/24 10:36:59;;;;;;;1.02;0.30;;;;;;;14.96;47.95;99455.78;5130259;27;20107;-67
2023/12/24 10:39:24;;;;;;;1.58;0.40;;;;;;;15.00;48.39;99458.88;5139552;27;20254;-67
2023/12/24 10:41:51;;;;;;;0.40;0.40;;;;;;;15.08;48.31;99456.03;5135258;27;20070;-65
2023/12/24 10:44:17;;;;;;;0.75;0.47;;;;;;;15.21;49.04;99464.09;5139086;27;20355;-67
2023/12/24 10:46:42;;;;;;;0.30;0.30;;;;;;;15.29;48.48;99450.59;5129854;27;20058;-66
2023/12/24 10:49:08;;;;;;;2.00;0.60;;;;;;;15.41;49.76;99447.34;5138255;27;20050;-67
2023/12/24 10:51:33;;;;;;;1.05;0.60;;;;;;;15.50;49.26;99443.47;5134402;27;20035;-67
2023/12/24 10:53:59;;;;;;;0.55;0.43;;;;;;;15.53;48.83;99443.06;5138197;27;20275;-67
2023/12/24 10:56:34;;;;;;;0.82;0.43;;;;;;;15.50;48.61;99451.47;5139210;27;20076;-65
2023/12/24 10:59:16;;;;;;;0.82;0.40;;;;;;;15.45;47.57;99460.09;5137995;27;20046;-65
2023/12/24 11:01:46;;;;;;;1.35;0.57;;;;;;;15.47;47.90;99463.38;5137716;27;20054;-67
2023/12/24 11:04:42;;;;;;;0.85;0.45;;;;;;;15.51;48.36;99458.47;5137672;27;20274;-67
2023/12/24 11:07:08;;;;;;;0.45;0.35;;;;;;;15.48;46.90;99451.69;5136016;27;20045;-67
2023/12/24 11:09:33;;;;;;;1.58;0.70;;;;;;;15.48;47.99;99445.53;5137702;27;20034;-67
2023/12/24 11:11:58;;;;;;;2.67;1.20;;;;;;;15.47;46.94;99449.22;5139778;27;20043;-67
2023/12/24 11:14:36;;;;;;;0.70;0.60;;;;;;;15.48;46.79;99445.53;5137531;27;20338;-64
2023/12/24 11:17:02;;;;;;;1.25;0.40;;;;;;;15.48;47.11;99450.84;5141633;27;20042;-65
2023/12/24 11:19:28;;;;;;;1.50;0.70;;;;;;;15.60;46.48;99455.47;5139598;27;20361;-67
2023/12/24 11:22:16;;;;;;;2.83;0.40;;;;;;;15.64;46.33;99451.38;5142587;27;20341;-65
2023/12/24 11:24:44;;;;;;;0.90;0.60;;;;;;;15.57;46.54;99454.97;5133793;27;20233;-66
2023/12/24 11:27:11;;;;;;;1.58;0.57;;;;;;;15.67;46.09;99452.81;5143483;27;20295;-65
2023/12/24 11:29:48;;;;;;;1.45;0.70;;;;;;;15.67;46.85;99444.81;5136678;27;20027;-65
2023/12/24 11:32:26;;;;;;;0.57;0.43;;;;;;;15.82;46.35;99450.78;5142673;27;20032;-67